createdAt,value
2016-06-29T00:00:36.582Z,82.98
2016-06-29T00:01:35.987Z,83.27
2016-06-29T00:02:36.630Z,83.37
2016-06-29T00:03:36.650Z,83.37
2016-06-29T00:04:36.075Z,83.27
2016-06-29T00:05:50.957Z,83.75
2016-06-29T00:06:36.726Z,83.84
2016-06-29T00:07:36.143Z,83.56
2016-06-29T00:08:36.162Z,84.61
2016-06-29T00:09:36.227Z,84.13
2016-06-29T00:10:36.824Z,84.42
2016-06-29T00:11:36.842Z,84.89
2016-06-29T00:12:36.867Z,84.52
2016-06-29T00:13:36.888Z,85.18
2016-06-29T00:14:36.930Z,84.8
2016-06-29T00:15:36.939Z,84.89
2016-06-29T00:16:36.966Z,84.8
2016-06-29T00:17:36.992Z,84.89
2016-06-29T00:20:51.334Z,84.99
2016-06-29T00:21:37.097Z,84.8
2016-06-29T00:22:37.110Z,85.09
2016-06-29T00:23:37.146Z,85.47
2016-06-29T00:25:36.581Z,85.28
2016-06-29T00:26:36.638Z,84.8
2016-06-29T00:27:36.650Z,84.7
2016-06-29T00:28:37.270Z,84.99
2016-06-29T00:29:37.305Z,84.89
2016-06-29T00:30:36.704Z,84.42
2016-06-29T00:32:37.357Z,84.32
2016-06-29T00:33:37.386Z,84.32
2016-06-29T00:34:37.440Z,84.99
2016-06-29T00:35:37.447Z,84.61
2016-06-29T00:36:36.849Z,84.7
2016-06-29T00:37:37.496Z,84.7
2016-06-29T00:38:36.895Z,84.99
2016-06-29T00:39:36.933Z,85.38
2016-06-29T00:40:36.957Z,85.28
2016-06-29T00:41:37.590Z,85.85
2016-06-29T00:42:37.611Z,85.66
2016-06-29T00:43:37.633Z,86.04
2016-06-29T00:44:37.042Z,85.57
2016-06-29T00:45:37.679Z,85.94
2016-06-29T00:46:37.697Z,86.04
2016-06-29T00:47:37.124Z,85.75
2016-06-29T00:48:37.782Z,85.38
2016-06-29T00:49:37.774Z,85.09
2016-06-29T00:50:37.810Z,85.57
2016-06-29T00:51:37.828Z,85.38
2016-06-29T00:52:52.124Z,85.09
2016-06-29T00:53:37.268Z,85.28
2016-06-29T00:54:37.912Z,84.89
2016-06-29T00:55:37.927Z,85.38
2016-06-29T00:56:37.974Z,85.28
2016-06-29T00:57:37.984Z,85.18
2016-06-29T00:58:37.395Z,85.47
2016-06-29T00:59:37.426Z,85.47
2016-06-29T01:00:38.049Z,84.99
2016-06-29T01:01:38.085Z,85.38
2016-06-29T01:02:37.509Z,85.18
2016-06-29T01:04:38.151Z,85.18
2016-06-29T01:06:37.588Z,84.7
2016-06-29T01:07:38.213Z,84.61
2016-06-29T01:08:52.517Z,84.23
2016-06-29T01:09:37.668Z,84.52
2016-06-29T01:11:38.318Z,84.42
2016-06-29T01:12:37.732Z,84.61
2016-06-29T01:13:37.764Z,84.7
2016-06-29T01:14:38.401Z,84.61
2016-06-29T01:15:38.410Z,84.99
2016-06-29T01:16:37.839Z,84.23
2016-06-29T01:17:37.864Z,84.03
2016-06-29T01:18:38.492Z,84.7
2016-06-29T01:19:38.518Z,84.61
2016-06-29T01:20:38.551Z,84.99
2016-06-29T01:21:38.017Z,84.7
2016-06-29T01:22:37.996Z,84.42
2016-06-29T01:23:38.627Z,85.18
2016-06-29T01:24:52.905Z,85.38
2016-06-29T01:25:38.054Z,85.57
2016-06-29T01:26:38.081Z,85.09
2016-06-29T01:27:38.094Z,85.38
2016-06-29T01:28:38.122Z,85.38
2016-06-29T01:29:38.762Z,84.99
2016-06-29T01:30:38.171Z,84.99
2016-06-29T01:31:38.206Z,84.61
2016-06-29T01:33:38.260Z,84.61
2016-06-29T01:34:38.281Z,85.28
2016-06-29T01:35:38.916Z,85.09
2016-06-29T01:36:38.934Z,85.47
2016-06-29T01:37:38.955Z,84.99
2016-06-29T01:38:38.372Z,85.75
2016-06-29T01:39:38.413Z,85.38
2016-06-29T01:40:53.298Z,85.94
2016-06-29T01:41:38.442Z,85.09
2016-06-29T01:42:39.070Z,85.28
2016-06-29T01:43:38.491Z,85.09
2016-06-29T01:44:38.517Z,85.18
2016-06-29T01:45:38.538Z,84.99
2016-06-29T01:46:39.203Z,84.32
2016-06-29T01:47:39.202Z,84.89
2016-06-29T01:48:38.620Z,84.7
2016-06-29T01:49:38.639Z,84.99
2016-06-29T01:50:38.663Z,85.09
2016-06-29T01:51:38.683Z,84.23
2016-06-29T01:52:39.327Z,84.36
2016-06-29T01:53:39.346Z,84.27
2016-06-29T01:54:39.368Z,84.08
2016-06-29T01:55:53.668Z,83.4
2016-06-29T01:56:38.811Z,83.31
2016-06-29T01:57:38.842Z,83.79
2016-06-29T01:58:38.870Z,83.89
2016-06-29T01:59:39.502Z,83.5
2016-06-29T02:00:39.518Z,83.31
2016-06-29T02:01:38.942Z,83.12
2016-06-29T02:02:39.575Z,83.69
2016-06-29T02:03:38.985Z,83.5
2016-06-29T02:04:39.008Z,83.6
2016-06-29T02:05:39.649Z,83.79
2016-06-29T02:06:39.666Z,84.46
2016-06-29T02:07:39.689Z,84.17
2016-06-29T02:08:39.714Z,83.79
2016-06-29T02:09:39.741Z,83.89
2016-06-29T02:11:39.178Z,83.6
2016-06-29T02:12:39.812Z,83.89
2016-06-29T02:13:39.227Z,83.98
2016-06-29T02:15:39.287Z,83.12
2016-06-29T02:16:39.937Z,83.31
2016-06-29T02:17:39.323Z,83.31
2016-06-29T02:18:39.957Z,83.03
2016-06-29T02:19:39.982Z,83.31
2016-06-29T02:20:39.405Z,83.4
2016-06-29T02:21:39.427Z,83.22
2016-06-29T02:22:40.057Z,82.74
2016-06-29T02:23:39.475Z,82.74
2016-06-29T02:24:40.100Z,82.35
2016-06-29T02:25:40.140Z,82.64
2016-06-29T02:26:39.544Z,82.26
2016-06-29T02:27:54.455Z,82.64
2016-06-29T02:28:39.601Z,82.74
2016-06-29T02:29:39.640Z,82.74
2016-06-29T02:30:39.644Z,82.26
2016-06-29T02:31:39.672Z,82.26
2016-06-29T02:32:39.700Z,82.35
2016-06-29T02:33:39.729Z,81.82
2016-06-29T02:34:39.733Z,81.78
2016-06-29T02:35:40.381Z,81.82
2016-06-29T02:36:39.794Z,81.25
2016-06-29T02:37:40.437Z,81.54
2016-06-29T02:38:39.847Z,81.54
2016-06-29T02:39:40.481Z,81.44
2016-06-29T02:40:40.497Z,81.54
2016-06-29T02:41:40.515Z,81.15
2016-06-29T02:42:39.939Z,81.54
2016-06-29T02:43:54.845Z,81.54
2016-06-29T02:45:40.017Z,81.73
2016-06-29T02:47:40.669Z,80.87
2016-06-29T02:48:40.086Z,80.87
2016-06-29T02:49:40.719Z,81.34
2016-06-29T02:50:40.745Z,81.44
2016-06-29T02:51:40.776Z,81.25
2016-06-29T02:52:40.791Z,81.92
2016-06-29T02:53:40.212Z,81.73
2016-06-29T02:54:40.237Z,81.92
2016-06-29T02:55:40.880Z,82.11
2016-06-29T02:56:40.292Z,82.01
2016-06-29T02:57:40.315Z,81.63
2016-06-29T02:59:55.239Z,81.44
2016-06-29T03:00:40.990Z,82.11
2016-06-29T03:01:40.406Z,82.11
2016-06-29T03:03:41.059Z,81.92
2016-06-29T03:04:40.487Z,81.92
2016-06-29T03:05:41.118Z,81.73
2016-06-29T03:06:40.523Z,82.01
2016-06-29T03:07:40.567Z,81.34
2016-06-29T03:08:41.193Z,81.92
2016-06-29T03:09:41.210Z,81.73
2016-06-29T03:10:41.231Z,81.73
2016-06-29T03:11:40.664Z,81.63
2016-06-29T03:13:40.699Z,82.01
2016-06-29T03:14:40.753Z,81.73
2016-06-29T03:15:55.630Z,81.92
2016-06-29T03:16:40.778Z,81.92
2016-06-29T03:17:40.806Z,81.92
2016-06-29T03:18:40.824Z,81.92
2016-06-29T03:19:40.859Z,81.82
2016-06-29T03:20:41.486Z,81.82
2016-06-29T03:21:40.899Z,82.01
2016-06-29T03:22:40.924Z,81.73
2016-06-29T03:23:41.557Z,81.73
2016-06-29T03:24:40.967Z,81.82
2016-06-29T03:25:41.000Z,81.73
2016-06-29T03:26:41.030Z,81.15
2016-06-29T03:27:41.661Z,81.25
2016-06-29T03:29:41.090Z,81.86
2016-06-29T03:30:55.998Z,81.67
2016-06-29T03:33:41.199Z,81.96
2016-06-29T03:34:41.220Z,81.86
2016-06-29T03:35:41.246Z,81.96
2016-06-29T03:36:41.877Z,81.48
2016-06-29T03:37:41.290Z,81.86
2016-06-29T03:38:41.935Z,81.86
2016-06-29T03:39:41.342Z,81.96
2016-06-29T03:41:41.397Z,81.38
2016-06-29T03:42:41.412Z,81.67
2016-06-29T03:44:41.509Z,81.48
2016-06-29T03:45:41.493Z,81.86
2016-06-29T03:46:41.530Z,81.86
2016-06-29T03:47:41.544Z,81.77
2016-06-29T03:48:42.187Z,81.96
2016-06-29T03:49:42.207Z,81.57
2016-06-29T03:51:41.639Z,81.86
2016-06-29T03:52:41.662Z,81.86
2016-06-29T03:53:42.311Z,81.86
2016-06-29T03:54:41.708Z,82.82
2016-06-29T03:55:41.729Z,82.53
2016-06-29T03:56:42.373Z,83.87
2016-06-29T03:57:41.780Z,84.45
2016-06-29T03:58:42.420Z,84.45
2016-06-29T03:59:42.449Z,85.69
2016-06-29T04:00:41.864Z,86.17
2016-06-29T04:01:42.488Z,87.76
2016-06-29T04:02:56.779Z,87.99
2016-06-29T04:03:41.934Z,88.85
2016-06-29T04:04:42.579Z,89.67
2016-06-29T04:05:42.592Z,90.34
2016-06-29T04:06:42.620Z,90.15
2016-06-29T04:07:42.651Z,91.01
2016-06-29T04:08:42.668Z,90.91
2016-06-29T04:09:42.719Z,90.91
2016-06-29T04:10:42.105Z,91.68
2016-06-29T04:11:42.128Z,91.68
2016-06-29T04:12:42.766Z,92.54
2016-06-29T04:13:42.806Z,92.25
2016-06-29T04:14:42.851Z,92.73
2016-06-29T04:15:42.223Z,92.54
2016-06-29T04:16:42.270Z,93.12
2016-06-29T04:17:42.913Z,93.59
2016-06-29T04:18:57.186Z,93.21
2016-06-29T04:19:42.335Z,93.74
2016-06-29T04:20:42.365Z,94.07
2016-06-29T04:21:42.394Z,93.5
2016-06-29T04:22:42.417Z,93.88
2016-06-29T04:23:43.042Z,93.88
2016-06-29T04:24:42.476Z,94.02
2016-06-29T04:25:43.110Z,94.07
2016-06-29T04:27:42.534Z,93.98
2016-06-29T04:28:43.173Z,94.79
2016-06-29T04:29:43.410Z,95.51
2016-06-29T04:30:43.214Z,95.41
2016-06-29T04:31:42.615Z,95.41
2016-06-29T04:32:43.256Z,95.46
2016-06-29T04:34:57.570Z,95.36
2016-06-29T04:35:43.333Z,96.13
2016-06-29T04:36:43.354Z,95.89
2016-06-29T04:37:42.761Z,96.32
2016-06-29T04:38:43.403Z,96.27
2016-06-29T04:39:42.813Z,96.27
2016-06-29T04:40:42.841Z,96.47
2016-06-29T04:41:43.478Z,97.23
2016-06-29T04:42:42.899Z,96.56
2016-06-29T04:44:42.935Z,97.04
2016-06-29T04:45:43.585Z,97.33
2016-06-29T04:46:43.627Z,97.23
2016-06-29T04:47:43.015Z,97.04
2016-06-29T04:48:43.647Z,97.8
2016-06-29T04:49:43.666Z,97.13
2016-06-29T04:50:57.965Z,98.19
2016-06-29T04:52:43.136Z,97.9
2016-06-29T04:53:43.158Z,97.71
2016-06-29T04:54:43.796Z,97.61
2016-06-29T04:55:43.207Z,97.61
2016-06-29T04:56:43.231Z,97.61
2016-06-29T04:57:43.262Z,97.33
2016-06-29T04:58:43.893Z,97.71
2016-06-29T04:59:43.306Z,98
2016-06-29T05:00:43.333Z,98
2016-06-29T05:01:43.965Z,97.8
2016-06-29T05:02:44.007Z,98.09
2016-06-29T05:03:44.045Z,98.09
2016-06-29T05:04:43.437Z,97.9
2016-06-29T05:05:58.331Z,98.47
2016-06-29T05:06:43.473Z,98.71
2016-06-29T05:07:44.123Z,98.05
2016-06-29T05:08:44.130Z,98.24
2016-06-29T05:10:43.575Z,98.14
2016-06-29T05:11:43.589Z,97.66
2016-06-29T05:12:44.236Z,97.95
2016-06-29T05:13:44.269Z,98.14
2016-06-29T05:14:44.285Z,97.85
2016-06-29T05:15:43.715Z,98.05
2016-06-29T05:16:43.725Z,97.56
2016-06-29T05:17:43.754Z,98.62
2016-06-29T05:18:43.775Z,97.47
2016-06-29T05:19:44.408Z,97.85
2016-06-29T05:20:43.823Z,96.94
2016-06-29T05:21:44.461Z,98
2016-06-29T05:22:44.495Z,98.38
2016-06-29T05:23:44.504Z,98
2016-06-29T05:24:44.527Z,97.52
2016-06-29T05:25:44.550Z,97.8
2016-06-29T05:26:44.585Z,97.33
2016-06-29T05:27:44.603Z,96.75
2016-06-29T05:28:44.628Z,96.84
2016-06-29T05:30:44.686Z,96.75
2016-06-29T05:31:44.091Z,96.7
2016-06-29T05:32:44.732Z,96.51
2016-06-29T05:33:44.761Z,96.22
2016-06-29T05:34:44.166Z,95.65
2016-06-29T05:35:44.798Z,95.6
2016-06-29T05:36:44.834Z,95.46
2016-06-29T05:37:59.119Z,93.54
2016-06-29T05:38:44.266Z,93.54
2016-06-29T05:39:44.919Z,92.86
2016-06-29T05:40:44.311Z,92.1
2016-06-29T05:42:45.002Z,90.51
2016-06-29T05:43:44.399Z,88.63
2016-06-29T05:44:44.414Z,84.87
2016-06-29T05:45:44.447Z,81.39
2016-06-29T05:46:45.085Z,78.67
2016-06-29T05:47:45.102Z,79.21
2016-06-29T05:48:45.131Z,81.39
2016-06-29T05:49:45.153Z,82.31
2016-06-29T05:50:44.562Z,82.17
2016-06-29T05:51:44.621Z,83.72
2016-06-29T05:53:59.534Z,84.63
2016-06-29T05:54:45.298Z,85.07
2016-06-29T05:55:44.701Z,86.13
2016-06-29T05:56:45.334Z,86.52
2016-06-29T05:57:45.367Z,87.09
2016-06-29T05:58:45.419Z,88.01
2016-06-29T05:59:45.466Z,86.95
2016-06-29T06:00:45.447Z,87.43
2016-06-29T06:01:44.882Z,87.43
2016-06-29T06:02:45.500Z,87.43
2016-06-29T06:03:45.516Z,87.53
2016-06-29T06:04:45.554Z,88.15
2016-06-29T06:05:45.574Z,86.04
2016-06-29T06:06:45.002Z,82.75
2016-06-29T06:07:45.633Z,82.12
2016-06-29T06:08:45.665Z,83.08
2016-06-29T06:09:59.953Z,84.39
2016-06-29T06:10:45.092Z,85.06
2016-06-29T06:11:45.119Z,84.58
2016-06-29T06:12:45.758Z,85.11
2016-06-29T06:13:45.171Z,85.6
2016-06-29T06:14:45.202Z,86.46
2016-06-29T06:16:45.871Z,87.42
2016-06-29T06:17:45.888Z,86.52
2016-06-29T06:18:45.309Z,86.46
2016-06-29T06:19:45.953Z,85.94
2016-06-29T06:20:45.971Z,86.36
2016-06-29T06:21:45.391Z,87.33
2016-06-29T06:22:45.413Z,86.27
2016-06-29T06:23:45.439Z,86.27
2016-06-29T06:24:45.465Z,87.71
2016-06-29T06:26:00.418Z,85.64
2016-06-29T06:26:45.519Z,84.91
2016-06-29T06:27:45.555Z,82.89
2016-06-29T06:28:45.568Z,84.05
2016-06-29T06:29:46.238Z,83.95
2016-06-29T06:30:46.254Z,83.85
2016-06-29T06:31:46.266Z,83.28
2016-06-29T06:32:45.676Z,82.79
2016-06-29T06:33:46.317Z,82.83
2016-06-29T06:34:45.733Z,82.45
2016-06-29T06:35:45.759Z,82.89
2016-06-29T06:36:46.395Z,83.47
2016-06-29T06:37:45.810Z,83.66
2016-06-29T06:38:46.444Z,83.08
2016-06-29T06:39:46.482Z,83.33
2016-06-29T06:41:00.771Z,84.97
2016-06-29T06:41:45.911Z,84.58
2016-06-29T06:42:45.945Z,85.35
2016-06-29T06:43:46.586Z,84.77
2016-06-29T06:44:46.609Z,84.48
2016-06-29T06:45:46.022Z,84.67
2016-06-29T06:46:46.662Z,84.97
2016-06-29T06:47:46.684Z,85.35
2016-06-29T06:49:46.736Z,84.67
2016-06-29T06:50:46.759Z,84.72
2016-06-29T06:51:46.785Z,83.75
2016-06-29T06:52:46.207Z,83.37
2016-06-29T06:53:46.844Z,82.54
2016-06-29T06:54:46.259Z,81.14
2016-06-29T06:55:46.897Z,79.24
2016-06-29T06:56:46.309Z,73.55
2016-06-29T06:57:46.341Z,71.08
2016-06-29T06:58:46.976Z,68.91
2016-06-29T06:59:47.022Z,68.3
2016-06-29T07:00:46.420Z,64.88
2016-06-29T07:01:46.445Z,66.3
2016-06-29T07:02:47.144Z,68.66
2016-06-29T07:03:46.506Z,69.75
2016-06-29T07:04:47.151Z,70.72
2016-06-29T07:05:47.177Z,71.72
2016-06-29T07:06:47.212Z,73.03
2016-06-29T07:07:46.616Z,73.8
2016-06-29T07:08:47.262Z,74.44
2016-06-29T07:09:47.283Z,74.64
2016-06-29T07:10:46.706Z,74.44
2016-06-29T07:11:47.353Z,74.83
2016-06-29T07:13:01.640Z,72.94
2016-06-29T07:13:47.430Z,73.9
2016-06-29T07:14:46.821Z,74.93
2016-06-29T07:15:47.458Z,74.6
2016-06-29T07:16:46.883Z,74.99
2016-06-29T07:17:46.899Z,76.05
2016-06-29T07:18:47.540Z,75.37
2016-06-29T07:19:47.583Z,76.05
2016-06-29T07:20:46.998Z,76.24
2016-06-29T07:21:47.034Z,76.15
2016-06-29T07:22:47.653Z,77.26
2016-06-29T07:23:47.126Z,77.33
2016-06-29T07:24:47.101Z,77.36
2016-06-29T07:26:47.171Z,76.98
2016-06-29T07:27:47.798Z,77.51
2016-06-29T07:29:02.090Z,78.77
2016-06-29T07:29:47.850Z,78.48
2016-06-29T07:30:47.882Z,78.58
2016-06-29T07:31:47.305Z,77.51
2016-06-29T07:32:47.327Z,77.42
2016-06-29T07:33:47.346Z,77.33
2016-06-29T07:34:47.987Z,77.9
2016-06-29T07:35:47.414Z,78.77
2016-06-29T07:36:47.432Z,78.38
2016-06-29T07:37:48.064Z,77.65
2016-06-29T07:38:47.487Z,78.61
2016-06-29T07:39:47.532Z,77.33
2016-06-29T07:40:48.157Z,77.36
2016-06-29T07:41:48.202Z,77.07
2016-06-29T07:43:47.641Z,76.53
2016-06-29T07:45:02.533Z,76.24
2016-06-29T07:45:48.293Z,75.85
2016-06-29T07:46:48.331Z,74.99
2016-06-29T07:48:48.375Z,73.19
2016-06-29T07:49:48.404Z,73.32
2016-06-29T07:50:47.823Z,72.26
2016-06-29T07:51:47.840Z,71.81
2016-06-29T07:52:47.871Z,69.88
2016-06-29T07:53:47.894Z,67.43
2016-06-29T07:54:48.532Z,64.24
2016-06-29T07:55:47.958Z,63.43
2016-06-29T07:56:48.594Z,63.53
2016-06-29T07:57:48.020Z,63.3
2016-06-29T07:58:48.043Z,64.47
2016-06-29T07:59:48.682Z,63.4
2016-06-29T08:01:02.980Z,62.75
2016-06-29T08:01:48.753Z,60.58
2016-06-29T08:02:48.154Z,61.16
2016-06-29T08:03:48.188Z,60
2016-06-29T08:04:48.826Z,59.31
2016-06-29T08:05:48.854Z,60.28
2016-06-29T08:06:48.905Z,60.48
2016-06-29T08:07:48.909Z,60.94
2016-06-29T08:08:48.344Z,60.25
2016-06-29T08:09:48.369Z,59.22
2016-06-29T08:10:49.003Z,58.86
2016-06-29T08:11:49.033Z,58.21
2016-06-29T08:12:49.074Z,57.31
2016-06-29T08:13:49.092Z,57.33
2016-06-29T08:16:03.445Z,60.58
2016-06-29T08:16:49.190Z,60.32
2016-06-29T08:17:49.228Z,59.38
2016-06-29T08:18:49.255Z,57.04
2016-06-29T08:19:49.295Z,54.15
2016-06-29T08:20:49.322Z,54.38
2016-06-29T08:21:49.356Z,52.09
2016-06-29T08:22:49.367Z,51.46
2016-06-29T08:23:48.793Z,50.8
2016-06-29T08:24:49.443Z,48.95
2016-06-29T08:25:49.474Z,48.8
2016-06-29T08:26:49.495Z,49.83
2016-06-29T08:27:48.927Z,51.24
2016-06-29T08:28:48.947Z,52.36
2016-06-29T08:29:49.028Z,53.5
2016-06-29T08:30:49.014Z,55.68
2016-06-29T08:31:49.037Z,56.24
2016-06-29T08:32:49.679Z,55.13
2016-06-29T08:33:49.106Z,54.08
2016-06-29T08:34:49.135Z,53.3
2016-06-29T08:35:49.774Z,50.82
2016-06-29T08:36:49.193Z,49.51
2016-06-29T08:37:49.839Z,47
2016-06-29T08:39:49.288Z,46.85
2016-06-29T08:40:49.348Z,45.8
2016-06-29T08:41:49.339Z,46
2016-06-29T08:42:49.997Z,45.62
2016-06-29T08:43:50.016Z,44.28
2016-06-29T08:44:50.061Z,43.71
2016-06-29T08:45:50.083Z,45.04
2016-06-29T08:46:50.115Z,45.9
2016-06-29T08:48:04.416Z,44.55
2016-06-29T08:48:50.187Z,45.12
2016-06-29T08:50:50.237Z,44.65
2016-06-29T08:51:49.669Z,42.71
2016-06-29T08:52:50.299Z,43.4
2016-06-29T08:53:50.342Z,43.01
2016-06-29T08:54:50.377Z,43.59
2016-06-29T08:55:50.413Z,44.65
2016-06-29T08:56:49.826Z,44.92
2016-06-29T08:57:50.484Z,45.65
2016-06-29T08:58:49.891Z,44.51
2016-06-29T08:59:49.911Z,44.14
2016-06-29T09:00:50.595Z,44.35
2016-06-29T09:01:49.977Z,44.63
2016-06-29T09:02:50.018Z,47.31
2016-06-29T09:04:04.933Z,48.17
2016-06-29T09:04:50.692Z,47.95
2016-06-29T09:05:50.103Z,48.14
2016-06-29T09:06:50.744Z,49
2016-06-29T09:07:50.785Z,47.27
2016-06-29T09:08:50.206Z,45.39
2016-06-29T09:09:50.861Z,43.57
2016-06-29T09:10:50.874Z,43.03
2016-06-29T09:11:50.294Z,42.93
2016-06-29T09:12:50.328Z,43.42
2016-06-29T09:13:50.978Z,42.99
2016-06-29T09:14:50.999Z,44.63
2016-06-29T09:15:50.426Z,46.69
2016-06-29T09:16:50.462Z,48.02
2016-06-29T09:17:51.092Z,48.19
2016-06-29T09:18:51.127Z,48.36
2016-06-29T09:20:05.429Z,49.41
2016-06-29T09:20:50.601Z,50.75
2016-06-29T09:21:51.225Z,50.85
2016-06-29T09:22:51.250Z,50.63
2016-06-29T09:23:50.682Z,52.09
2016-06-29T09:24:51.317Z,52.47
2016-06-29T09:25:50.728Z,52.57
2016-06-29T09:26:50.763Z,52.74
2016-06-29T09:27:51.404Z,53.03
2016-06-29T09:28:50.821Z,52.15
2016-06-29T09:29:51.483Z,52.25
2016-06-29T09:30:51.509Z,53.3
2016-06-29T09:31:50.915Z,53.3
2016-06-29T09:32:50.945Z,53.03
2016-06-29T09:33:51.585Z,52.25
2016-06-29T09:34:51.618Z,52.47
2016-06-29T09:36:05.918Z,51.31
2016-06-29T09:36:51.063Z,50.31
2016-06-29T09:37:51.709Z,50.43
2016-06-29T09:38:51.747Z,49.37
2016-06-29T09:39:51.188Z,49.19
2016-06-29T09:40:51.816Z,48.34
2016-06-29T09:41:51.832Z,45.84
2016-06-29T09:42:51.878Z,46.32
2016-06-29T09:43:51.889Z,45.88
2016-06-29T09:44:51.332Z,44.34
2016-06-29T09:45:51.336Z,42.83
2016-06-29T09:46:52.019Z,42.12
2016-06-29T09:47:52.004Z,44.03
2016-06-29T09:48:51.423Z,44.76
2016-06-29T09:49:52.063Z,46.47
2016-06-29T09:51:06.370Z,47.03
2016-06-29T09:51:52.131Z,46.57
2016-06-29T09:52:51.546Z,47.71
2016-06-29T09:53:52.184Z,47.13
2016-06-29T09:54:52.221Z,47.13
2016-06-29T09:55:52.240Z,46.64
2016-06-29T09:56:52.271Z,47.11
2016-06-29T09:57:51.717Z,47.59
2016-06-29T09:58:52.333Z,47.86
2016-06-29T09:59:51.751Z,47.93
2016-06-29T10:00:51.788Z,48.88
2016-06-29T10:01:52.425Z,49.37
2016-06-29T10:02:52.457Z,50.5
2016-06-29T10:03:51.878Z,51.96
2016-06-29T10:04:52.510Z,51.67
2016-06-29T10:05:52.547Z,52.06
2016-06-29T10:06:51.959Z,51.09
2016-06-29T10:07:52.595Z,51.54
2016-06-29T10:08:52.630Z,51.35
2016-06-29T10:09:52.653Z,52.32
2016-06-29T10:10:52.102Z,52.12
2016-06-29T10:11:52.718Z,52.61
2016-06-29T10:12:52.134Z,53.09
2016-06-29T10:13:52.779Z,53.58
2016-06-29T10:14:52.193Z,54.71
2016-06-29T10:15:52.238Z,55.68
2016-06-29T10:16:52.258Z,55.58
2016-06-29T10:17:52.900Z,57.4
2016-06-29T10:18:52.916Z,57.79
2016-06-29T10:19:52.949Z,60.01
2016-06-29T10:20:52.979Z,64.01
2016-06-29T10:21:53.007Z,66.24
2016-06-29T10:23:07.301Z,66.11
2016-06-29T10:23:53.067Z,67.36
2016-06-29T10:24:53.084Z,66.85
2016-06-29T10:25:52.513Z,68.33
2016-06-29T10:26:53.145Z,68.56
2016-06-29T10:27:52.562Z,67.69
2016-06-29T10:28:53.199Z,66.85
2016-06-29T10:29:53.225Z,66.27
2016-06-29T10:30:52.657Z,67.91
2016-06-29T10:31:53.287Z,66.27
2016-06-29T10:32:52.737Z,66.6
2016-06-29T10:33:53.346Z,65.66
2016-06-29T10:34:53.370Z,64.59
2016-06-29T10:35:53.409Z,65.01
2016-06-29T10:36:52.820Z,63.85
2016-06-29T10:39:07.755Z,62.72
2016-06-29T10:39:53.525Z,61.19
2016-06-29T10:40:52.940Z,61.88
2016-06-29T10:41:52.967Z,62.55
2016-06-29T10:43:53.641Z,58.9
2016-06-29T10:44:53.659Z,58.51
2016-06-29T10:45:53.085Z,58.05
2016-06-29T10:46:53.110Z,56.96
2016-06-29T10:47:53.146Z,57.06
2016-06-29T10:48:53.172Z,56.6
2016-06-29T10:49:53.805Z,55.04
2016-06-29T10:50:53.236Z,55.55
2016-06-29T10:51:53.880Z,54.29
2016-06-29T10:52:53.288Z,53.45
2016-06-29T10:53:53.328Z,53.28
2016-06-29T10:55:08.226Z,51.36
2016-06-29T10:55:53.985Z,52.04
2016-06-29T10:56:53.399Z,51.36
2016-06-29T10:57:54.043Z,50.68
2016-06-29T10:58:53.470Z,50.48
2016-06-29T10:59:54.100Z,52.79
2016-06-29T11:00:53.529Z,50.09
2016-06-29T11:01:54.172Z,51.23
2016-06-29T11:02:53.592Z,53.93
2016-06-29T11:03:53.615Z,54.13
2016-06-29T11:05:54.285Z,55.98
2016-06-29T11:06:54.313Z,53.25
2016-06-29T11:07:53.733Z,53.83
2016-06-29T11:08:54.381Z,54.58
2016-06-29T11:09:54.410Z,53.69
2016-06-29T11:11:08.702Z,53.97
2016-06-29T11:11:54.460Z,53.69
2016-06-29T11:12:54.486Z,53
2016-06-29T11:13:54.513Z,52.33
2016-06-29T11:14:54.609Z,54.27
2016-06-29T11:15:54.587Z,52.55
2016-06-29T11:16:54.610Z,51.97
2016-06-29T11:17:54.638Z,52.74
2016-06-29T11:18:54.054Z,53.39
2016-06-29T11:19:54.086Z,53.22
2016-06-29T11:21:54.798Z,52.64
2016-06-29T11:22:54.775Z,53.2
2016-06-29T11:23:54.248Z,53.61
2016-06-29T11:24:54.844Z,54.68
2016-06-29T11:26:09.143Z,52.55
2016-06-29T11:26:54.299Z,52.45
2016-06-29T11:27:54.364Z,51.31
2016-06-29T11:28:54.351Z,52.86
2016-06-29T11:29:54.386Z,51.21
2016-06-29T11:30:55.027Z,49.56
2016-06-29T11:31:55.058Z,49.66
2016-06-29T11:32:54.473Z,50.63
2016-06-29T11:33:54.492Z,49.66
2016-06-29T11:34:55.138Z,49.07
2016-06-29T11:35:55.175Z,48
2016-06-29T11:36:55.186Z,49.37
2016-06-29T11:37:54.613Z,50.31
2016-06-29T11:38:55.252Z,50.63
2016-06-29T11:39:54.680Z,49.17
2016-06-29T11:40:54.699Z,49.37
2016-06-29T11:41:55.353Z,48.1
2016-06-29T11:42:55.377Z,48.49
2016-06-29T11:43:55.414Z,49.85
2016-06-29T11:44:55.445Z,47.32
2016-06-29T11:45:55.466Z,48.58
2016-06-29T11:46:55.487Z,48.32
2016-06-29T11:47:54.910Z,47.44
2016-06-29T11:48:55.548Z,47.54
2016-06-29T11:49:55.575Z,48.78
2016-06-29T11:50:55.598Z,48.2
2016-06-29T11:51:55.022Z,47.74
2016-06-29T11:52:55.678Z,47.83
2016-06-29T11:53:55.093Z,47.15
2016-06-29T11:54:55.727Z,47.23
2016-06-29T11:55:55.152Z,47.52
2016-06-29T11:56:55.175Z,46.25
2016-06-29T11:58:10.078Z,45.97
2016-06-29T11:58:55.841Z,46.84
2016-06-29T11:59:55.263Z,47.42
2016-06-29T12:00:55.905Z,45.97
2016-06-29T12:02:55.961Z,46.25
2016-06-29T12:03:55.988Z,45.38
2016-06-29T12:04:56.020Z,46.08
2016-06-29T12:05:56.045Z,46.08
2016-06-29T12:06:56.069Z,44.74
2016-06-29T12:07:56.106Z,44.92
2016-06-29T12:08:56.133Z,45.67
2016-06-29T12:09:56.156Z,46.64
2016-06-29T12:10:55.582Z,45.4
2016-06-29T12:11:55.622Z,44.99
2016-06-29T12:12:55.640Z,45.97
2016-06-29T12:14:10.542Z,47.13
2016-06-29T12:14:56.314Z,46.23
2016-06-29T12:15:56.341Z,46.62
2016-06-29T12:16:55.754Z,47.78
2016-06-29T12:17:55.781Z,47.4
2016-06-29T12:19:56.443Z,45.77
2016-06-29T12:20:55.872Z,47.03
2016-06-29T12:21:56.507Z,46.25
2016-06-29T12:22:55.921Z,46.08
2016-06-29T12:23:55.951Z,45.14
2016-06-29T12:24:56.589Z,42.99
2016-06-29T12:25:56.634Z,44.45
2016-06-29T12:26:56.662Z,44.35
2016-06-29T12:27:56.691Z,44.35
2016-06-29T12:30:11.026Z,45.23
2016-06-29T12:31:56.807Z,43.77
2016-06-29T12:32:56.836Z,44.06
2016-06-29T12:33:56.854Z,44.06
2016-06-29T12:34:56.938Z,44.26
2016-06-29T12:35:56.925Z,44.26
2016-06-29T12:36:56.951Z,43.7
2016-06-29T12:37:56.369Z,42.91
2016-06-29T12:38:57.009Z,43.58
2016-06-29T12:39:56.449Z,43.3
2016-06-29T12:41:56.486Z,42.63
2016-06-29T12:42:56.504Z,42.72
2016-06-29T12:43:56.546Z,41.86
2016-06-29T12:44:56.565Z,41.77
2016-06-29T12:46:11.482Z,40.89
2016-06-29T12:46:56.629Z,40.39
2016-06-29T12:47:56.681Z,42.53
2016-06-29T12:48:57.297Z,39.34
2016-06-29T12:49:56.718Z,40.13
2016-06-29T12:50:57.358Z,40.89
2016-06-29T12:51:56.780Z,41.19
2016-06-29T12:52:56.811Z,41.19
2016-06-29T12:53:57.450Z,40.31
2016-06-29T12:54:57.472Z,40.21
2016-06-29T12:55:57.515Z,39.7
2016-06-29T12:56:56.932Z,39.61
2016-06-29T12:57:57.562Z,39.7
2016-06-29T12:58:57.587Z,39.22
2016-06-29T12:59:57.014Z,39.59
2016-06-29T13:01:11.925Z,40.64
2016-06-29T13:02:57.093Z,40.34
2016-06-29T13:03:57.749Z,39.28
2016-06-29T13:05:57.806Z,40.23
2016-06-29T13:06:57.222Z,40.62
2016-06-29T13:07:57.859Z,40.52
2016-06-29T13:08:57.286Z,40.73
2016-06-29T13:09:57.922Z,40.06
2016-06-29T13:10:57.955Z,40.72
2016-06-29T13:11:57.373Z,42.56
2016-06-29T13:12:58.002Z,41.88
2016-06-29T13:13:58.057Z,40.91
2016-06-29T13:14:57.446Z,41.88
2016-06-29T13:16:57.514Z,41.2
2016-06-29T13:17:58.157Z,41.67
2016-06-29T13:18:57.572Z,41.18
2016-06-29T13:19:57.611Z,42.35
2016-06-29T13:20:57.638Z,40.52
2016-06-29T13:21:57.659Z,41.47
2016-06-29T13:22:58.299Z,40.03
2016-06-29T13:23:58.328Z,41.01
2016-06-29T13:24:57.746Z,41.59
2016-06-29T13:25:57.788Z,40.03
2016-06-29T13:26:57.803Z,40.34
2016-06-29T13:27:58.451Z,39.96
2016-06-29T13:28:58.473Z,39.67
2016-06-29T13:29:57.891Z,39.1
2016-06-29T13:30:58.536Z,40.06
2016-06-29T13:31:57.956Z,38.89
2016-06-29T13:33:12.853Z,38.4
2016-06-29T13:34:58.038Z,39.36
2016-06-29T13:35:58.070Z,40.13
2016-06-29T13:36:58.105Z,38.67
2016-06-29T13:37:58.742Z,39.26
2016-06-29T13:38:58.161Z,38.67
2016-06-29T13:39:58.187Z,40.21
2016-06-29T13:40:58.210Z,40.31
2016-06-29T13:41:58.845Z,40.5
2016-06-29T13:42:58.282Z,40.89
2016-06-29T13:43:58.919Z,40.79
2016-06-29T13:44:58.328Z,40.79
2016-06-29T13:45:58.971Z,40.5